sensor_id;sensor_type;location;lat;lon;timestamp;temperature;humidity
22167;DHT22;11249;52.468;13.776;2022-12-19T00:01:59;-5.10;99.90
22167;DHT22;11249;52.468;13.776;2022-12-19T00:04:32;-5.10;99.90
22167;DHT22;11249;52.468;13.776;2022-12-19T00:06:59;-5.10;99.90
22167;DHT22;11249;52.468;13.776;2022-12-19T00:09:26;-5.10;99.90
22167;DHT22;11249;52.468;13.776;2022-12-19T00:12:01;-5.10;99.90
22167;DHT22;11249;52.468;13.776;2022-12-19T00:14:34;-5.10;99.90
22167;DHT22;11249;52.468;13.776;2022-12-19T00:17:07;-5.10;99.90
22167;DHT22;11249;52.468;13.776;2022-12-19T00:19:40;-5.10;99.90
22167;DHT22;11249;52.468;13.776;2022-12-19T00:22:13;-5.10;99.90
22167;DHT22;11249;52.468;13.776;2022-12-19T00:24:39;-5.10;99.90
22167;DHT22;11249;52.468;13.776;2022-12-19T00:27:13;-5.10;99.90
22167;DHT22;11249;52.468;13.776;2022-12-19T00:29:39;-5.10;99.90
22167;DHT22;11249;52.468;13.776;2022-12-19T00:32:13;-5.10;99.90
22167;DHT22;11249;52.468;13.776;2022-12-19T00:34:42;-5.10;99.90
22167;DHT22;11249;52.468;13.776;2022-12-19T00:37:08;-5.10;99.90
22167;DHT22;11249;52.468;13.776;2022-12-19T00:39:43;-5.10;99.90
22167;DHT22;11249;52.468;13.776;2022-12-19T00:42:10;-5.10;99.90
22167;DHT22;11249;52.468;13.776;2022-12-19T00:44:36;-5.10;99.90
22167;DHT22;11249;52.468;13.776;2022-12-19T00:47:09;-5.00;99.90
22167;DHT22;11249;52.468;13.776;2022-12-19T00:49:35;-5.00;99.90
22167;DHT22;11249;52.468;13.776;2022-12-19T00:52:10;-5.10;99.90
22167;DHT22;11249;52.468;13.776;2022-12-19T00:54:36;-5.00;99.90
22167;DHT22;11249;52.468;13.776;2022-12-19T00:57:10;-5.00;99.90
22167;DHT22;11249;52.468;13.776;2022-12-19T00:59:37;-5.00;99.90
22167;DHT22;11249;52.468;13.776;2022-12-19T01:02:10;-5.00;99.90
22167;DHT22;11249;52.468;13.776;2022-12-19T01:04:37;-5.00;99.90
22167;DHT22;11249;52.468;13.776;2022-12-19T01:07:10;-5.00;99.90
22167;DHT22;11249;52.468;13.776;2022-12-19T01:09:37;-5.00;99.90
22167;DHT22;11249;52.468;13.776;2022-12-19T01:12:05;-5.10;99.90
22167;DHT22;11249;52.468;13.776;2022-12-19T01:15:04;-5.00;99.90
22167;DHT22;11249;52.468;13.776;2022-12-19T01:17:38;-5.00;99.90
22167;DHT22;11249;52.468;13.776;2022-12-19T01:20:14;-5.00;99.90
22167;DHT22;11249;52.468;13.776;2022-12-19T01:22:55;-5.00;99.90
22167;DHT22;11249;52.468;13.776;2022-12-19T01:25:24;-5.00;99.90
22167;DHT22;11249;52.468;13.776;2022-12-19T01:27:58;-5.00;99.90
22167;DHT22;11249;52.468;13.776;2022-12-19T01:30:26;-5.00;99.90
22167;DHT22;11249;52.468;13.776;2022-12-19T01:32:55;-5.00;99.90
22167;DHT22;11249;52.468;13.776;2022-12-19T01:35:29;-4.90;99.90
22167;DHT22;11249;52.468;13.776;2022-12-19T01:38:02;-4.90;99.90
22167;DHT22;11249;52.468;13.776;2022-12-19T01:40:35;-4.90;99.90
22167;DHT22;11249;52.468;13.776;2022-12-19T01:43:02;-4.80;99.90
22167;DHT22;11249;52.468;13.776;2022-12-19T01:45:35;-4.80;99.90
22167;DHT22;11249;52.468;13.776;2022-12-19T01:48:31;-4.80;99.90
22167;DHT22;11249;52.468;13.776;2022-12-19T01:51:49;-4.80;99.90
22167;DHT22;11249;52.468;13.776;2022-12-19T01:54:21;-4.80;99.90
22167;DHT22;11249;52.468;13.776;2022-12-19T01:56:56;-4.90;99.90
22167;DHT22;11249;52.468;13.776;2022-12-19T01:59:28;-4.80;99.90
22167;DHT22;11249;52.468;13.776;2022-12-19T02:02:10;-4.90;99.90
22167;DHT22;11249;52.468;13.776;2022-12-19T02:04:46;-4.90;99.90
22167;DHT22;11249;52.468;13.776;2022-12-19T02:07:22;-4.90;99.90
22167;DHT22;11249;52.468;13.776;2022-12-19T02:09:52;-4.90;99.90
22167;DHT22;11249;52.468;13.776;2022-12-19T02:12:24;-4.90;99.90
22167;DHT22;11249;52.468;13.776;2022-12-19T02:14:59;-4.90;99.90
22167;DHT22;11249;52.468;13.776;2022-12-19T02:17:53;-4.90;99.90
22167;DHT22;11249;52.468;13.776;2022-12-19T02:20:50;-4.90;99.90
22167;DHT22;11249;52.468;13.776;2022-12-19T02:29:47;-4.90;99.90
22167;DHT22;11249;52.468;13.776;2022-12-19T02:32:20;-4.90;99.90
22167;DHT22;11249;52.468;13.776;2022-12-19T02:35:28;-5.00;99.90
22167;DHT22;11249;52.468;13.776;2022-12-19T02:38:09;-5.00;99.90
22167;DHT22;11249;52.468;13.776;2022-12-19T02:40:54;-5.00;99.90
22167;DHT22;11249;52.468;13.776;2022-12-19T02:43:23;-5.00;99.90
22167;DHT22;11249;52.468;13.776;2022-12-19T02:45:58;-5.00;99.90
22167;DHT22;11249;52.468;13.776;2022-12-19T02:48:27;-5.00;99.90
22167;DHT22;11249;52.468;13.776;2022-12-19T02:51:01;-5.00;99.90
22167;DHT22;11249;52.468;13.776;2022-12-19T02:53:28;-5.00;99.90
22167;DHT22;11249;52.468;13.776;2022-12-19T02:56:22;-5.10;99.90
22167;DHT22;11249;52.468;13.776;2022-12-19T03:05:21;-5.20;99.90
22167;DHT22;11249;52.468;13.776;2022-12-19T03:08:04;-5.20;99.90
22167;DHT22;11249;52.468;13.776;2022-12-19T03:10:43;-5.20;99.90
22167;DHT22;11249;52.468;13.776;2022-12-19T03:13:16;-5.20;99.90
22167;DHT22;11249;52.468;13.776;2022-12-19T03:15:51;-5.30;99.90
22167;DHT22;11249;52.468;13.776;2022-12-19T03:18:32;-5.30;99.90
22167;DHT22;11249;52.468;13.776;2022-12-19T03:21:12;-5.30;99.90
22167;DHT22;11249;52.468;13.776;2022-12-19T03:23:48;-5.30;99.90
22167;DHT22;11249;52.468;13.776;2022-12-19T03:26:25;-5.40;99.90
22167;DHT22;11249;52.468;13.776;2022-12-19T03:29:13;-5.40;99.90
22167;DHT22;11249;52.468;13.776;2022-12-19T03:31:48;-5.40;99.90
22167;DHT22;11249;52.468;13.776;2022-12-19T03:34:23;-5.40;99.90
22167;DHT22;11249;52.468;13.776;2022-12-19T03:37:01;-5.40;99.90
22167;DHT22;11249;52.468;13.776;2022-12-19T03:39:30;-5.40;99.90
22167;DHT22;11249;52.468;13.776;2022-12-19T03:42:05;-5.40;99.90
22167;DHT22;11249;52.468;13.776;2022-12-19T03:44:52;-5.40;99.90
22167;DHT22;11249;52.468;13.776;2022-12-19T03:50:01;-5.40;99.90
22167;DHT22;11249;52.468;13.776;2022-12-19T03:55:25;-5.40;99.90
22167;DHT22;11249;52.468;13.776;2022-12-19T03:58:06;-5.40;99.90
22167;DHT22;11249;52.468;13.776;2022-12-19T04:00:44;-5.40;99.90
22167;DHT22;11249;52.468;13.776;2022-12-19T04:03:14;-5.40;99.90
22167;DHT22;11249;52.468;13.776;2022-12-19T04:05:49;-5.40;99.90
22167;DHT22;11249;52.468;13.776;2022-12-19T04:08:23;-5.40;99.90
22167;DHT22;11249;52.468;13.776;2022-12-19T04:11:03;-5.40;99.90
22167;DHT22;11249;52.468;13.776;2022-12-19T04:13:41;-5.40;99.90
22167;DHT22;11249;52.468;13.776;2022-12-19T04:17:33;-5.40;99.90
22167;DHT22;11249;52.468;13.776;2022-12-19T04:20:04;-5.40;99.90
22167;DHT22;11249;52.468;13.776;2022-12-19T04:23:09;-5.40;99.90
22167;DHT22;11249;52.468;13.776;2022-12-19T04:25:41;-5.30;99.90
22167;DHT22;11249;52.468;13.776;2022-12-19T04:28:19;-5.30;99.90
22167;DHT22;11249;52.468;13.776;2022-12-19T04:30:48;-5.20;99.90
22167;DHT22;11249;52.468;13.776;2022-12-19T04:33:21;-5.10;99.90
22167;DHT22;11249;52.468;13.776;2022-12-19T04:35:48;-5.10;99.90
22167;DHT22;11249;52.468;13.776;2022-12-19T04:38:14;-5.00;99.90
22167;DHT22;11249;52.468;13.776;2022-12-19T04:40:48;-4.90;99.90
22167;DHT22;11249;52.468;13.776;2022-12-19T04:43:21;-4.90;99.90
22167;DHT22;11249;52.468;13.776;2022-12-19T04:45:48;-4.70;99.90
22167;DHT22;11249;52.468;13.776;2022-12-19T04:48:23;-4.70;99.90
22167;DHT22;11249;52.468;13.776;2022-12-19T04:50:50;-4.60;99.90
22167;DHT22;11249;52.468;13.776;2022-12-19T04:53:24;-4.60;99.90
22167;DHT22;11249;52.468;13.776;2022-12-19T04:56:05;-4.50;99.90
22167;DHT22;11249;52.468;13.776;2022-12-19T04:58:38;-4.40;99.90
22167;DHT22;11249;52.468;13.776;2022-12-19T05:01:06;-4.30;99.90
22167;DHT22;11249;52.468;13.776;2022-12-19T05:03:33;-4.30;99.90
22167;DHT22;11249;52.468;13.776;2022-12-19T05:06:09;-4.30;99.90
22167;DHT22;11249;52.468;13.776;2022-12-19T05:08:38;-4.30;99.90
22167;DHT22;11249;52.468;13.776;2022-12-19T05:11:14;-4.20;99.90
22167;DHT22;11249;52.468;13.776;2022-12-19T05:13:45;-4.20;99.90
22167;DHT22;11249;52.468;13.776;2022-12-19T05:16:19;-4.20;99.90
22167;DHT22;11249;52.468;13.776;2022-12-19T05:18:52;-4.20;99.90
22167;DHT22;11249;52.468;13.776;2022-12-19T05:21:27;-4.20;99.90
22167;DHT22;11249;52.468;13.776;2022-12-19T05:24:00;-4.20;99.90
22167;DHT22;11249;52.468;13.776;2022-12-19T05:26:26;-4.20;99.90
22167;DHT22;11249;52.468;13.776;2022-12-19T05:28:53;-4.10;99.90
22167;DHT22;11249;52.468;13.776;2022-12-19T05:31:26;-4.10;99.90
22167;DHT22;11249;52.468;13.776;2022-12-19T05:33:59;-4.10;99.90
22167;DHT22;11249;52.468;13.776;2022-12-19T05:36:26;-4.10;99.90
22167;DHT22;11249;52.468;13.776;2022-12-19T05:38:59;-4.10;99.90
22167;DHT22;11249;52.468;13.776;2022-12-19T05:41:25;-4.10;99.90
22167;DHT22;11249;52.468;13.776;2022-12-19T05:43:59;-4.10;99.90
22167;DHT22;11249;52.468;13.776;2022-12-19T05:46:25;-4.10;99.90
22167;DHT22;11249;52.468;13.776;2022-12-19T05:48:59;-4.10;99.90
22167;DHT22;11249;52.468;13.776;2022-12-19T05:51:26;-4.10;99.90
22167;DHT22;11249;52.468;13.776;2022-12-19T05:53:52;-4.10;99.90
22167;DHT22;11249;52.468;13.776;2022-12-19T05:56:26;-4.00;99.90
22167;DHT22;11249;52.468;13.776;2022-12-19T05:58:59;-4.00;99.90
22167;DHT22;11249;52.468;13.776;2022-12-19T06:01:26;-4.00;99.90
22167;DHT22;11249;52.468;13.776;2022-12-19T06:04:02;-3.90;99.90
22167;DHT22;11249;52.468;13.776;2022-12-19T06:06:36;-3.90;99.90
22167;DHT22;11249;52.468;13.776;2022-12-19T06:09:09;-3.90;99.90
22167;DHT22;11249;52.468;13.776;2022-12-19T06:11:42;-3.80;99.90
22167;DHT22;11249;52.468;13.776;2022-12-19T06:14:08;-3.70;99.90
22167;DHT22;11249;52.468;13.776;2022-12-19T06:16:42;-3.70;99.90
22167;DHT22;11249;52.468;13.776;2022-12-19T06:19:22;-3.60;99.90
22167;DHT22;11249;52.468;13.776;2022-12-19T06:21:48;-3.60;99.90
22167;DHT22;11249;52.468;13.776;2022-12-19T06:24:23;-3.50;99.90
22167;DHT22;11249;52.468;13.776;2022-12-19T06:26:50;-3.50;99.90
22167;DHT22;11249;52.468;13.776;2022-12-19T06:29:17;-3.50;99.90
22167;DHT22;11249;52.468;13.776;2022-12-19T06:31:50;-3.40;99.90
22167;DHT22;11249;52.468;13.776;2022-12-19T06:34:23;-3.40;99.90
22167;DHT22;11249;52.468;13.776;2022-12-19T06:37:16;-3.40;99.90
22167;DHT22;11249;52.468;13.776;2022-12-19T06:39:49;-3.30;99.90
22167;DHT22;11249;52.468;13.776;2022-12-19T06:42:16;-3.30;99.90
22167;DHT22;11249;52.468;13.776;2022-12-19T06:44:55;-3.30;99.90
22167;DHT22;11249;52.468;13.776;2022-12-19T06:47:23;-3.20;99.90
22167;DHT22;11249;52.468;13.776;2022-12-19T06:49:56;-3.20;99.90
22167;DHT22;11249;52.468;13.776;2022-12-19T06:52:22;-3.10;99.90
22167;DHT22;11249;52.468;13.776;2022-12-19T06:54:49;-3.20;99.90
22167;DHT22;11249;52.468;13.776;2022-12-19T06:57:23;-3.10;99.90
22167;DHT22;11249;52.468;13.776;2022-12-19T06:59:49;-3.10;99.90
22167;DHT22;11249;52.468;13.776;2022-12-19T07:02:30;-3.00;99.90
22167;DHT22;11249;52.468;13.776;2022-12-19T07:05:06;-3.00;99.90
22167;DHT22;11249;52.468;13.776;2022-12-19T07:07:39;-2.90;99.90
22167;DHT22;11249;52.468;13.776;2022-12-19T07:10:13;-2.90;99.90
22167;DHT22;11249;52.468;13.776;2022-12-19T07:12:41;-2.90;99.90
22167;DHT22;11249;52.468;13.776;2022-12-19T07:15:08;-2.90;99.90
22167;DHT22;11249;52.468;13.776;2022-12-19T07:17:41;-2.80;99.90
22167;DHT22;11249;52.468;13.776;2022-12-19T07:20:15;-2.80;99.90
22167;DHT22;11249;52.468;13.776;2022-12-19T07:22:48;-2.80;99.90
22167;DHT22;11249;52.468;13.776;2022-12-19T07:25:15;-2.70;99.90
22167;DHT22;11249;52.468;13.776;2022-12-19T07:27:43;-2.70;99.90
22167;DHT22;11249;52.468;13.776;2022-12-19T07:30:17;-2.70;99.90
22167;DHT22;11249;52.468;13.776;2022-12-19T07:32:44;-2.70;99.90
22167;DHT22;11249;52.468;13.776;2022-12-19T07:35:17;-2.60;99.90
22167;DHT22;11249;52.468;13.776;2022-12-19T07:37:43;-2.60;99.90
22167;DHT22;11249;52.468;13.776;2022-12-19T07:40:10;-2.60;99.90
22167;DHT22;11249;52.468;13.776;2022-12-19T07:42:44;-2.50;99.90
22167;DHT22;11249;52.468;13.776;2022-12-19T07:45:11;-2.50;99.90
22167;DHT22;11249;52.468;13.776;2022-12-19T07:47:38;-2.50;99.90
22167;DHT22;11249;52.468;13.776;2022-12-19T07:50:11;-2.40;99.90
22167;DHT22;11249;52.468;13.776;2022-12-19T07:52:44;-2.40;99.90
22167;DHT22;11249;52.468;13.776;2022-12-19T07:55:10;-2.30;99.90
22167;DHT22;11249;52.468;13.776;2022-12-19T07:57:44;-2.30;99.90
22167;DHT22;11249;52.468;13.776;2022-12-19T08:00:11;-2.20;99.90
22167;DHT22;11249;52.468;13.776;2022-12-19T08:02:44;-2.20;99.90
22167;DHT22;11249;52.468;13.776;2022-12-19T08:05:11;-2.10;99.90
22167;DHT22;11249;52.468;13.776;2022-12-19T08:07:38;-2.20;99.90
22167;DHT22;11249;52.468;13.776;2022-12-19T08:10:12;-2.10;99.90
22167;DHT22;11249;52.468;13.776;2022-12-19T08:12:47;-2.00;99.90
22167;DHT22;11249;52.468;13.776;2022-12-19T08:15:14;-2.00;99.90
22167;DHT22;11249;52.468;13.776;2022-12-19T08:17:40;-1.90;99.90
22167;DHT22;11249;52.468;13.776;2022-12-19T08:20:21;-1.90;99.90
22167;DHT22;11249;52.468;13.776;2022-12-19T08:22:54;-1.80;99.90
22167;DHT22;11249;52.468;13.776;2022-12-19T08:25:20;-1.80;99.90
22167;DHT22;11249;52.468;13.776;2022-12-19T08:27:47;-1.70;99.90
22167;DHT22;11249;52.468;13.776;2022-12-19T08:30:20;-1.70;99.90
22167;DHT22;11249;52.468;13.776;2022-12-19T08:32:46;-1.60;99.90
22167;DHT22;11249;52.468;13.776;2022-12-19T08:35:13;-1.60;99.90
22167;DHT22;11249;52.468;13.776;2022-12-19T08:37:47;-1.50;99.90
22167;DHT22;11249;52.468;13.776;2022-12-19T08:40:13;-1.50;99.90
22167;DHT22;11249;52.468;13.776;2022-12-19T08:42:40;-1.40;99.90
22167;DHT22;11249;52.468;13.776;2022-12-19T08:45:13;-1.40;99.90
22167;DHT22;11249;52.468;13.776;2022-12-19T08:47:46;-1.30;99.90
22167;DHT22;11249;52.468;13.776;2022-12-19T08:50:12;-1.20;99.90
22167;DHT22;11249;52.468;13.776;2022-12-19T08:52:46;-1.20;99.90
22167;DHT22;11249;52.468;13.776;2022-12-19T08:55:13;-1.10;99.90
22167;DHT22;11249;52.468;13.776;2022-12-19T08:57:46;-1.10;99.90
22167;DHT22;11249;52.468;13.776;2022-12-19T09:00:19;-1.00;99.90
22167;DHT22;11249;52.468;13.776;2022-12-19T09:02:53;-0.90;99.90
22167;DHT22;11249;52.468;13.776;2022-12-19T09:05:20;-0.90;99.90
22167;DHT22;11249;52.468;13.776;2022-12-19T09:08:13;-0.80;99.90
22167;DHT22;11249;52.468;13.776;2022-12-19T09:10:39;-0.80;99.90
22167;DHT22;11249;52.468;13.776;2022-12-19T09:13:13;-0.80;99.90
22167;DHT22;11249;52.468;13.776;2022-12-19T09:15:46;-0.70;99.90
22167;DHT22;11249;52.468;13.776;2022-12-19T09:18:12;-0.70;99.90
22167;DHT22;11249;52.468;13.776;2022-12-19T09:20:54;-0.70;99.90
22167;DHT22;11249;52.468;13.776;2022-12-19T09:23:22;-0.60;99.90
22167;DHT22;11249;52.468;13.776;2022-12-19T09:26:04;-0.50;99.90
22167;DHT22;11249;52.468;13.776;2022-12-19T09:28:31;-0.50;99.90
22167;DHT22;11249;52.468;13.776;2022-12-19T09:31:07;-0.50;99.90
22167;DHT22;11249;52.468;13.776;2022-12-19T09:33:40;-0.40;99.90
22167;DHT22;11249;52.468;13.776;2022-12-19T09:36:16;-0.40;99.90
22167;DHT22;11249;52.468;13.776;2022-12-19T09:38:53;-0.40;99.90
22167;DHT22;11249;52.468;13.776;2022-12-19T09:44:13;-0.30;99.90
22167;DHT22;11249;52.468;13.776;2022-12-19T09:49:51;-0.20;99.90
22167;DHT22;11249;52.468;13.776;2022-12-19T09:52:38;-0.20;99.90
22167;DHT22;11249;52.468;13.776;2022-12-19T09:55:21;-0.10;99.90
22167;DHT22;11249;52.468;13.776;2022-12-19T10:00:51;0.10;99.90
22167;DHT22;11249;52.468;13.776;2022-12-19T10:06:19;0.20;99.90
22167;DHT22;11249;52.468;13.776;2022-12-19T10:09:14;0.30;99.90
22167;DHT22;11249;52.468;13.776;2022-12-19T10:12:47;0.40;99.90
22167;DHT22;11249;52.468;13.776;2022-12-19T10:15:47;0.40;99.90
22167;DHT22;11249;52.468;13.776;2022-12-19T10:18:55;0.50;99.90
22167;DHT22;11249;52.468;13.776;2022-12-19T10:21:44;0.50;99.90
22167;DHT22;11249;52.468;13.776;2022-12-19T10:24:56;0.60;99.90
22167;DHT22;11249;52.468;13.776;2022-12-19T10:30:46;0.70;99.90
22167;DHT22;11249;52.468;13.776;2022-12-19T10:33:27;0.80;99.90
22167;DHT22;11249;52.468;13.776;2022-12-19T10:35:59;0.80;99.90
22167;DHT22;11249;52.468;13.776;2022-12-19T10:38:44;1.00;99.90
22167;DHT22;11249;52.468;13.776;2022-12-19T10:41:26;1.00;99.90
22167;DHT22;11249;52.468;13.776;2022-12-19T10:44:09;1.10;99.90
22167;DHT22;11249;52.468;13.776;2022-12-19T10:46:43;1.20;99.90
22167;DHT22;11249;52.468;13.776;2022-12-19T10:49:20;1.20;99.90
22167;DHT22;11249;52.468;13.776;2022-12-19T10:52:05;1.30;99.90
22167;DHT22;11249;52.468;13.776;2022-12-19T10:54:41;1.40;99.90
22167;DHT22;11249;52.468;13.776;2022-12-19T10:57:23;1.40;99.90
22167;DHT22;11249;52.468;13.776;2022-12-19T11:00:03;1.50;99.90
22167;DHT22;11249;52.468;13.776;2022-12-19T11:02:40;1.60;99.90
22167;DHT22;11249;52.468;13.776;2022-12-19T11:05:28;1.70;99.90
22167;DHT22;11249;52.468;13.776;2022-12-19T11:08:12;1.80;99.90
22167;DHT22;11249;52.468;13.776;2022-12-19T11:10:49;1.90;99.90
22167;DHT22;11249;52.468;13.776;2022-12-19T11:13:44;1.90;99.90
22167;DHT22;11249;52.468;13.776;2022-12-19T11:16:38;2.00;99.90
22167;DHT22;11249;52.468;13.776;2022-12-19T11:19:36;2.10;99.90
22167;DHT22;11249;52.468;13.776;2022-12-19T11:22:37;2.10;99.90
22167;DHT22;11249;52.468;13.776;2022-12-19T11:25:37;2.20;99.90
22167;DHT22;11249;52.468;13.776;2022-12-19T11:28:34;2.20;99.90
22167;DHT22;11249;52.468;13.776;2022-12-19T11:31:28;2.20;99.90
22167;DHT22;11249;52.468;13.776;2022-12-19T11:34:20;2.20;99.90
22167;DHT22;11249;52.468;13.776;2022-12-19T11:37:25;2.10;99.90
22167;DHT22;11249;52.468;13.776;2022-12-19T11:42:57;2.10;99.90
22167;DHT22;11249;52.468;13.776;2022-12-19T11:46:37;2.00;99.90
22167;DHT22;11249;52.468;13.776;2022-12-19T11:49:24;2.00;99.90
22167;DHT22;11249;52.468;13.776;2022-12-19T11:52:20;2.00;99.90
22167;DHT22;11249;52.468;13.776;2022-12-19T11:57:57;1.90;99.90
22167;DHT22;11249;52.468;13.776;2022-12-19T12:00:31;2.00;99.90
22167;DHT22;11249;52.468;13.776;2022-12-19T12:05:48;1.90;99.90
22167;DHT22;11249;52.468;13.776;2022-12-19T12:08:44;1.90;99.90
22167;DHT22;11249;52.468;13.776;2022-12-19T12:12:09;1.90;99.90
22167;DHT22;11249;52.468;13.776;2022-12-19T12:18:28;1.80;99.90
22167;DHT22;11249;52.468;13.776;2022-12-19T12:21:35;1.80;99.90
22167;DHT22;11249;52.468;13.776;2022-12-19T12:28:41;1.70;99.90
22167;DHT22;11249;52.468;13.776;2022-12-19T12:31:29;1.70;99.90
22167;DHT22;11249;52.468;13.776;2022-12-19T12:34:35;1.70;99.90
22167;DHT22;11249;52.468;13.776;2022-12-19T12:37:43;1.80;99.90
22167;DHT22;11249;52.468;13.776;2022-12-19T12:41:08;1.80;99.90
22167;DHT22;11249;52.468;13.776;2022-12-19T12:44:06;1.80;99.90
22167;DHT22;11249;52.468;13.776;2022-12-19T12:46:38;1.80;99.90
22167;DHT22;11249;52.468;13.776;2022-12-19T12:52:19;1.80;99.90
22167;DHT22;11249;52.468;13.776;2022-12-19T12:54:53;1.80;99.90
22167;DHT22;11249;52.468;13.776;2022-12-19T12:57:34;1.70;99.90
22167;DHT22;11249;52.468;13.776;2022-12-19T13:00:21;1.70;99.90
22167;DHT22;11249;52.468;13.776;2022-12-19T13:03:15;1.70;99.90
22167;DHT22;11249;52.468;13.776;2022-12-19T13:20:41;1.70;99.90
22167;DHT22;11249;52.468;13.776;2022-12-19T13:26:03;1.60;99.90
22167;DHT22;11249;52.468;13.776;2022-12-19T13:36:43;1.60;99.90
22167;DHT22;11249;52.468;13.776;2022-12-19T13:42:51;1.60;99.90
22167;DHT22;11249;52.468;13.776;2022-12-19T13:45:40;1.60;99.90
22167;DHT22;11249;52.468;13.776;2022-12-19T13:48:21;1.60;99.90
22167;DHT22;11249;52.468;13.776;2022-12-19T13:50:50;1.60;99.90
22167;DHT22;11249;52.468;13.776;2022-12-19T13:53:28;1.60;99.90
22167;DHT22;11249;52.468;13.776;2022-12-19T13:56:00;1.60;99.90
22167;DHT22;11249;52.468;13.776;2022-12-19T13:58:58;1.70;99.90
22167;DHT22;11249;52.468;13.776;2022-12-19T14:01:29;1.60;99.90
22167;DHT22;11249;52.468;13.776;2022-12-19T14:04:49;1.70;99.90
22167;DHT22;11249;52.468;13.776;2022-12-19T14:07:24;1.60;99.90
22167;DHT22;11249;52.468;13.776;2022-12-19T14:10:06;1.60;99.90
22167;DHT22;11249;52.468;13.776;2022-12-19T14:12:54;1.70;99.90
22167;DHT22;11249;52.468;13.776;2022-12-19T14:16:12;1.70;99.90
22167;DHT22;11249;52.468;13.776;2022-12-19T14:19:00;1.70;99.90
22167;DHT22;11249;52.468;13.776;2022-12-19T14:21:40;1.80;99.90
22167;DHT22;11249;52.468;13.776;2022-12-19T14:24:26;1.70;99.90
22167;DHT22;11249;52.468;13.776;2022-12-19T14:27:03;1.70;99.90
22167;DHT22;11249;52.468;13.776;2022-12-19T14:29:52;1.70;99.90
22167;DHT22;11249;52.468;13.776;2022-12-19T14:32:48;1.70;99.90
22167;DHT22;11249;52.468;13.776;2022-12-19T14:35:49;1.70;99.90
22167;DHT22;11249;52.468;13.776;2022-12-19T14:38:37;1.70;99.90
22167;DHT22;11249;52.468;13.776;2022-12-19T14:41:42;1.70;99.90
22167;DHT22;11249;52.468;13.776;2022-12-19T14:44:46;1.70;99.90
22167;DHT22;11249;52.468;13.776;2022-12-19T14:47:40;1.70;99.90
22167;DHT22;11249;52.468;13.776;2022-12-19T14:50:36;1.70;99.90
22167;DHT22;11249;52.468;13.776;2022-12-19T14:53:30;1.70;99.90
22167;DHT22;11249;52.468;13.776;2022-12-19T14:56:19;1.70;99.90
22167;DHT22;11249;52.468;13.776;2022-12-19T14:59:35;1.80;99.90
22167;DHT22;11249;52.468;13.776;2022-12-19T15:02:25;1.80;99.90
22167;DHT22;11249;52.468;13.776;2022-12-19T15:05:11;1.80;99.90
22167;DHT22;11249;52.468;13.776;2022-12-19T15:07:43;1.80;99.90
22167;DHT22;11249;52.468;13.776;2022-12-19T15:10:25;1.80;99.90
22167;DHT22;11249;52.468;13.776;2022-12-19T15:16:30;1.90;99.90
22167;DHT22;11249;52.468;13.776;2022-12-19T15:19:11;1.90;99.90
22167;DHT22;11249;52.468;13.776;2022-12-19T15:21:44;1.90;99.90
22167;DHT22;11249;52.468;13.776;2022-12-19T15:24:11;1.90;99.90
22167;DHT22;11249;52.468;13.776;2022-12-19T15:26:50;1.90;99.90
22167;DHT22;11249;52.468;13.776;2022-12-19T15:29:17;2.00;99.90
22167;DHT22;11249;52.468;13.776;2022-12-19T15:31:51;2.00;99.90
22167;DHT22;11249;52.468;13.776;2022-12-19T15:34:29;2.00;99.90
22167;DHT22;11249;52.468;13.776;2022-12-19T15:37:16;2.00;99.90
22167;DHT22;11249;52.468;13.776;2022-12-19T15:39:49;2.00;99.90
22167;DHT22;11249;52.468;13.776;2022-12-19T15:42:23;2.10;99.90
22167;DHT22;11249;52.468;13.776;2022-12-19T15:44:53;2.10;99.90
22167;DHT22;11249;52.468;13.776;2022-12-19T15:47:33;2.10;99.90
22167;DHT22;11249;52.468;13.776;2022-12-19T15:50:01;2.10;99.90
22167;DHT22;11249;52.468;13.776;2022-12-19T15:52:37;2.10;99.90
22167;DHT22;11249;52.468;13.776;2022-12-19T15:55:04;2.20;99.90
22167;DHT22;11249;52.468;13.776;2022-12-19T15:58:02;2.20;99.90
22167;DHT22;11249;52.468;13.776;2022-12-19T16:00:33;2.20;99.90
22167;DHT22;11249;52.468;13.776;2022-12-19T16:03:11;2.20;99.90
22167;DHT22;11249;52.468;13.776;2022-12-19T16:05:50;2.20;99.90
22167;DHT22;11249;52.468;13.776;2022-12-19T16:08:23;2.30;99.90
22167;DHT22;11249;52.468;13.776;2022-12-19T16:10:53;2.30;99.90
22167;DHT22;11249;52.468;13.776;2022-12-19T16:13:30;2.40;99.90
22167;DHT22;11249;52.468;13.776;2022-12-19T16:15:57;2.40;99.90
22167;DHT22;11249;52.468;13.776;2022-12-19T16:18:25;2.40;99.90
22167;DHT22;11249;52.468;13.776;2022-12-19T16:20:58;2.40;99.90
22167;DHT22;11249;52.468;13.776;2022-12-19T16:23:38;2.40;99.90
22167;DHT22;11249;52.468;13.776;2022-12-19T16:26:07;2.50;99.90
22167;DHT22;11249;52.468;13.776;2022-12-19T16:28:44;2.40;99.90
22167;DHT22;11249;52.468;13.776;2022-12-19T16:31:20;2.50;99.90
22167;DHT22;11249;52.468;13.776;2022-12-19T16:33:49;2.50;99.90
22167;DHT22;11249;52.468;13.776;2022-12-19T16:36:15;2.50;99.90
22167;DHT22;11249;52.468;13.776;2022-12-19T16:38:49;2.50;99.90
22167;DHT22;11249;52.468;13.776;2022-12-19T16:41:24;2.50;99.90
22167;DHT22;11249;52.468;13.776;2022-12-19T16:43:51;2.50;99.90
22167;DHT22;11249;52.468;13.776;2022-12-19T16:46:20;2.60;99.90
22167;DHT22;11249;52.468;13.776;2022-12-19T16:48:54;2.60;99.90
22167;DHT22;11249;52.468;13.776;2022-12-19T16:51:23;2.70;99.90
22167;DHT22;11249;52.468;13.776;2022-12-19T16:53:52;2.70;99.90
22167;DHT22;11249;52.468;13.776;2022-12-19T16:56:33;2.70;99.90
22167;DHT22;11249;52.468;13.776;2022-12-19T16:59:26;2.70;99.90
22167;DHT22;11249;52.468;13.776;2022-12-19T17:01:55;2.80;99.90
22167;DHT22;11249;52.468;13.776;2022-12-19T17:04:28;2.80;99.90
22167;DHT22;11249;52.468;13.776;2022-12-19T17:06:55;2.70;99.90
22167;DHT22;11249;52.468;13.776;2022-12-19T17:09:23;2.80;99.90
22167;DHT22;11249;52.468;13.776;2022-12-19T17:11:58;2.80;99.90
22167;DHT22;11249;52.468;13.776;2022-12-19T17:14:32;2.80;99.90
22167;DHT22;11249;52.468;13.776;2022-12-19T17:16:59;2.80;99.90
22167;DHT22;11249;52.468;13.776;2022-12-19T17:19:39;2.80;99.90
22167;DHT22;11249;52.468;13.776;2022-12-19T17:22:14;2.80;99.90
22167;DHT22;11249;52.468;13.776;2022-12-19T17:24:43;2.80;99.90
22167;DHT22;11249;52.468;13.776;2022-12-19T17:27:17;2.80;99.90
22167;DHT22;11249;52.468;13.776;2022-12-19T17:29:44;2.80;99.90
22167;DHT22;11249;52.468;13.776;2022-12-19T17:32:19;2.90;99.90
22167;DHT22;11249;52.468;13.776;2022-12-19T17:34:52;2.90;99.90
22167;DHT22;11249;52.468;13.776;2022-12-19T17:37:25;3.00;99.90
22167;DHT22;11249;52.468;13.776;2022-12-19T17:39:51;2.90;99.90
22167;DHT22;11249;52.468;13.776;2022-12-19T17:42:25;3.00;99.90
22167;DHT22;11249;52.468;13.776;2022-12-19T17:44:59;3.00;99.90
22167;DHT22;11249;52.468;13.776;2022-12-19T17:47:32;3.00;99.90
22167;DHT22;11249;52.468;13.776;2022-12-19T17:49:59;3.00;99.90
22167;DHT22;11249;52.468;13.776;2022-12-19T17:52:34;3.10;99.90